sensor_id;sensor_type;location;lat;lon;timestamp;pressure;altitude;pressure_sealevel;temperature;humidity
8543;BME280;4309;42.658;23.380;2023-02-02T00:00:18;94805.94;;;5.65;53.35
8543;BME280;4309;42.658;23.380;2023-02-02T00:00:49;94804.06;;;5.59;53.54
8543;BME280;4309;42.658;23.380;2023-02-02T00:01:22;94805.19;;;5.50;52.26
8543;BME280;4309;42.658;23.380;2023-02-02T00:01:54;94807.97;;;5.49;52.47
8543;BME280;4309;42.658;23.380;2023-02-02T00:02:26;94809.63;;;5.56;52.91
8543;BME280;4309;42.658;23.380;2023-02-02T00:02:57;94810.88;;;5.60;52.47
8543;BME280;4309;42.658;23.380;2023-02-02T00:03:27;94802.84;;;5.55;52.53
8543;BME280;4309;42.658;23.380;2023-02-02T00:04:01;94816.44;;;5.57;51.71
8543;BME280;4309;42.658;23.380;2023-02-02T00:04:35;94810.25;;;5.58;52.45
8543;BME280;4309;42.658;23.380;2023-02-02T00:05:37;94800.88;;;5.57;52.32
8543;BME280;4309;42.658;23.380;2023-02-02T00:06:09;94806.47;;;5.61;51.67
8543;BME280;4309;42.658;23.380;2023-02-02T00:06:40;94813.16;;;5.70;51.28
8543;BME280;4309;42.658;23.380;2023-02-02T00:07:11;94807.16;;;5.69;51.70
8543;BME280;4309;42.658;23.380;2023-02-02T00:07:42;94815.63;;;5.78;52.13
8543;BME280;4309;42.658;23.380;2023-02-02T00:08:13;94816.78;;;5.75;52.42
8543;BME280;4309;42.658;23.380;2023-02-02T00:08:45;94814.81;;;5.77;52.10
8543;BME280;4309;42.658;23.380;2023-02-02T00:09:18;94812.59;;;5.74;52.08
8543;BME280;4309;42.658;23.380;2023-02-02T00:09:49;94811.97;;;5.72;52.52
8543;BME280;4309;42.658;23.380;2023-02-02T00:10:20;94821.19;;;5.75;52.80
8543;BME280;4309;42.658;23.380;2023-02-02T00:10:51;94815.56;;;5.71;52.56
8543;BME280;4309;42.658;23.380;2023-02-02T00:11:22;94823.09;;;5.66;52.61
8543;BME280;4309;42.658;23.380;2023-02-02T00:11:54;94820.94;;;5.70;53.02
8543;BME280;4309;42.658;23.380;2023-02-02T00:12:26;94812.59;;;5.74;52.15
8543;BME280;4309;42.658;23.380;2023-02-02T00:12:57;94818.75;;;5.73;53.11
8543;BME280;4309;42.658;23.380;2023-02-02T00:13:28;94805.97;;;5.72;52.33
8543;BME280;4309;42.658;23.380;2023-02-02T00:13:58;94805.00;;;5.73;52.00
8543;BME280;4309;42.658;23.380;2023-02-02T00:14:31;94794.63;;;5.73;53.02
8543;BME280;4309;42.658;23.380;2023-02-02T00:15:02;94797.47;;;5.78;52.21
8543;BME280;4309;42.658;23.380;2023-02-02T00:15:32;94799.31;;;5.84;52.39
8543;BME280;4309;42.658;23.380;2023-02-02T00:16:32;94801.53;;;5.87;52.60
8543;BME280;4309;42.658;23.380;2023-02-02T00:17:03;94802.94;;;5.89;52.13
8543;BME280;4309;42.658;23.380;2023-02-02T00:17:35;94811.97;;;5.93;52.62
8543;BME280;4309;42.658;23.380;2023-02-02T00:18:06;94807.91;;;5.84;52.21
8543;BME280;4309;42.658;23.380;2023-02-02T00:18:37;94809.72;;;5.84;52.52
8543;BME280;4309;42.658;23.380;2023-02-02T00:19:09;94800.34;;;5.89;52.86
8543;BME280;4309;42.658;23.380;2023-02-02T00:19:41;94811.09;;;5.86;53.00
8543;BME280;4309;42.658;23.380;2023-02-02T00:20:12;94814.50;;;5.87;52.86
8543;BME280;4309;42.658;23.380;2023-02-02T00:20:44;94805.72;;;5.88;52.24
8543;BME280;4309;42.658;23.380;2023-02-02T00:21:18;94811.41;;;5.77;51.92
8543;BME280;4309;42.658;23.380;2023-02-02T00:21:49;94805.66;;;5.81;51.70
8543;BME280;4309;42.658;23.380;2023-02-02T00:22:20;94814.44;;;5.80;52.45
8543;BME280;4309;42.658;23.380;2023-02-02T00:22:51;94812.97;;;5.71;52.56
8543;BME280;4309;42.658;23.380;2023-02-02T00:23:22;94806.84;;;5.79;52.31
8543;BME280;4309;42.658;23.380;2023-02-02T00:23:53;94813.63;;;5.80;52.42
8543;BME280;4309;42.658;23.380;2023-02-02T00:24:25;94807.22;;;5.76;53.27
8543;BME280;4309;42.658;23.380;2023-02-02T00:24:56;94807.41;;;5.74;52.94
8543;BME280;4309;42.658;23.380;2023-02-02T00:25:27;94813.91;;;5.64;52.95
8543;BME280;4309;42.658;23.380;2023-02-02T00:25:58;94812.66;;;5.60;53.76
8543;BME280;4309;42.658;23.380;2023-02-02T00:26:29;94804.06;;;5.59;52.62
8543;BME280;4309;42.658;23.380;2023-02-02T00:27:00;94808.09;;;5.62;53.19
8543;BME280;4309;42.658;23.380;2023-02-02T00:27:32;94812.47;;;5.61;53.25
8543;BME280;4309;42.658;23.380;2023-02-02T00:28:02;94811.91;;;5.66;53.53
8543;BME280;4309;42.658;23.380;2023-02-02T00:28:33;94811.91;;;5.66;53.68
8543;BME280;4309;42.658;23.380;2023-02-02T00:29:05;94814.31;;;5.67;52.87
8543;BME280;4309;42.658;23.380;2023-02-02T00:29:37;94814.88;;;5.63;54.18
8543;BME280;4309;42.658;23.380;2023-02-02T00:30:10;94810.94;;;5.67;53.54
8543;BME280;4309;42.658;23.380;2023-02-02T00:30:41;94815.31;;;5.66;54.08
8543;BME280;4309;42.658;23.380;2023-02-02T00:31:12;94812.53;;;5.68;53.94
8543;BME280;4309;42.658;23.380;2023-02-02T00:31:43;94820.94;;;5.70;54.31
8543;BME280;4309;42.658;23.380;2023-02-02T00:32:14;94816.00;;;5.75;53.34
8543;BME280;4309;42.658;23.380;2023-02-02T00:32:45;94817.41;;;5.77;53.22
8543;BME280;4309;42.658;23.380;2023-02-02T00:33:17;94809.81;;;5.76;53.77
8543;BME280;4309;42.658;23.380;2023-02-02T00:33:49;94822.09;;;5.67;53.15
8543;BME280;4309;42.658;23.380;2023-02-02T00:34:20;94818.34;;;5.70;52.98
8543;BME280;4309;42.658;23.380;2023-02-02T00:34:52;94821.00;;;5.76;52.83
8543;BME280;4309;42.658;23.380;2023-02-02T00:35:23;94814.56;;;5.72;53.40
8543;BME280;4309;42.658;23.380;2023-02-02T00:35:56;94815.13;;;5.68;53.71
8543;BME280;4309;42.658;23.380;2023-02-02T00:36:26;94820.56;;;5.73;53.60
8543;BME280;4309;42.658;23.380;2023-02-02T00:37:30;94813.41;;;5.75;53.80
8543;BME280;4309;42.658;23.380;2023-02-02T00:38:02;94821.59;;;5.78;53.56
8543;BME280;4309;42.658;23.380;2023-02-02T00:38:32;94821.53;;;5.72;52.67
8543;BME280;4309;42.658;23.380;2023-02-02T00:39:04;94819.50;;;5.67;53.26
8543;BME280;4309;42.658;23.380;2023-02-02T00:39:35;94818.91;;;5.65;53.74
8543;BME280;4309;42.658;23.380;2023-02-02T00:40:08;94823.91;;;5.67;52.76
8543;BME280;4309;42.658;23.380;2023-02-02T00:40:39;94824.50;;;5.69;53.21
8543;BME280;4309;42.658;23.380;2023-02-02T00:41:11;94823.94;;;5.73;52.93
8543;BME280;4309;42.658;23.380;2023-02-02T00:41:41;94820.63;;;5.79;53.44
8543;BME280;4309;42.658;23.380;2023-02-02T00:42:12;94822.97;;;5.74;53.55
8543;BME280;4309;42.658;23.380;2023-02-02T00:42:43;94827.34;;;5.74;53.68
8543;BME280;4309;42.658;23.380;2023-02-02T00:43:18;94830.38;;;5.77;53.81
8543;BME280;4309;42.658;23.380;2023-02-02T00:43:49;94827.59;;;5.79;53.48
8543;BME280;4309;42.658;23.380;2023-02-02T00:44:39;94836.56;;;5.76;53.35
8543;BME280;4309;42.658;23.380;2023-02-02T00:45:29;94828.78;;;5.76;53.06
8543;BME280;4309;42.658;23.380;2023-02-02T00:46:00;94834.38;;;5.80;53.99
8543;BME280;4309;42.658;23.380;2023-02-02T00:46:31;94833.97;;;5.76;53.25
8543;BME280;4309;42.658;23.380;2023-02-02T00:47:02;94834.31;;;5.73;53.13
8543;BME280;4309;42.658;23.380;2023-02-02T00:47:34;94833.53;;;5.73;53.29
8543;BME280;4309;42.658;23.380;2023-02-02T00:48:05;94839.16;;;5.76;54.37
8543;BME280;4309;42.658;23.380;2023-02-02T00:48:36;94835.19;;;5.80;53.97
8543;BME280;4309;42.658;23.380;2023-02-02T00:49:08;94831.59;;;5.81;53.17
8543;BME280;4309;42.658;23.380;2023-02-02T00:49:39;94832.78;;;5.79;53.09
8543;BME280;4309;42.658;23.380;2023-02-02T00:50:13;94831.78;;;5.80;53.68
8543;BME280;4309;42.658;23.380;2023-02-02T00:50:44;94837.78;;;5.80;52.84
8543;BME280;4309;42.658;23.380;2023-02-02T00:51:15;94831.88;;;5.86;52.69
8543;BME280;4309;42.658;23.380;2023-02-02T00:51:46;94825.00;;;5.79;52.82
8543;BME280;4309;42.658;23.380;2023-02-02T00:52:17;94821.88;;;5.83;52.32
8543;BME280;4309;42.658;23.380;2023-02-02T00:52:49;94828.06;;;5.82;52.62
8543;BME280;4309;42.658;23.380;2023-02-02T00:53:21;94823.41;;;5.78;53.12
8543;BME280;4309;42.658;23.380;2023-02-02T00:53:51;94812.97;;;5.71;53.35
8543;BME280;4309;42.658;23.380;2023-02-02T00:54:22;94833.53;;;5.73;53.22
8543;BME280;4309;42.658;23.380;2023-02-02T00:54:53;94827.16;;;5.75;52.95
8543;BME280;4309;42.658;23.380;2023-02-02T00:55:25;94824.13;;;5.72;53.42
8543;BME280;4309;42.658;23.380;2023-02-02T00:55:56;94824.66;;;5.82;52.50
8543;BME280;4309;42.658;23.380;2023-02-02T00:56:26;94818.72;;;5.46;53.18
8543;BME280;4309;42.658;23.380;2023-02-02T00:56:58;94821.47;;;5.44;52.60
8543;BME280;4309;42.658;23.380;2023-02-02T00:57:29;94821.97;;;5.33;52.70
8543;BME280;4309;42.658;23.380;2023-02-02T00:57:59;94820.97;;;5.34;53.28
8543;BME280;4309;42.658;23.380;2023-02-02T00:58:31;94826.91;;;5.28;53.56
8543;BME280;4309;42.658;23.380;2023-02-02T00:59:02;94825.97;;;5.36;53.39
8543;BME280;4309;42.658;23.380;2023-02-02T00:59:32;94831.78;;;5.38;54.29
8543;BME280;4309;42.658;23.380;2023-02-02T01:00:06;94809.72;;;5.42;53.28
8543;BME280;4309;42.658;23.380;2023-02-02T01:00:37;94824.50;;;5.27;53.65
8543;BME280;4309;42.658;23.380;2023-02-02T01:01:14;94827.19;;;5.19;53.39
8543;BME280;4309;42.658;23.380;2023-02-02T01:01:46;94813.47;;;5.18;53.92
8543;BME280;4309;42.658;23.380;2023-02-02T01:02:17;94829.41;;;5.22;54.25
8543;BME280;4309;42.658;23.380;2023-02-02T01:02:47;94814.50;;;5.24;53.62
8543;BME280;4309;42.658;23.380;2023-02-02T01:03:19;94821.59;;;5.36;54.20
8543;BME280;4309;42.658;23.380;2023-02-02T01:03:50;94825.38;;;5.34;54.21
8543;BME280;4309;42.658;23.380;2023-02-02T01:04:21;94819.13;;;5.28;53.72
8543;BME280;4309;42.658;23.380;2023-02-02T01:04:53;94822.97;;;5.32;54.69
8543;BME280;4309;42.658;23.380;2023-02-02T01:05:23;94815.59;;;5.15;54.04
8543;BME280;4309;42.658;23.380;2023-02-02T01:05:54;94819.69;;;5.24;53.79
8543;BME280;4309;42.658;23.380;2023-02-02T01:06:26;94813.34;;;5.26;53.61
8543;BME280;4309;42.658;23.380;2023-02-02T01:07:00;94814.00;;;5.35;54.55
8543;BME280;4309;42.658;23.380;2023-02-02T01:07:31;94817.84;;;5.39;54.85
8543;BME280;4309;42.658;23.380;2023-02-02T01:08:04;94811.41;;;5.35;54.80
8543;BME280;4309;42.658;23.380;2023-02-02T01:08:35;94809.09;;;5.40;55.11
8543;BME280;4309;42.658;23.380;2023-02-02T01:09:06;94812.47;;;5.40;54.98
8543;BME280;4309;42.658;23.380;2023-02-02T01:09:37;94810.97;;;5.31;54.40
8543;BME280;4309;42.658;23.380;2023-02-02T01:10:12;94809.63;;;5.35;55.15
8543;BME280;4309;42.658;23.380;2023-02-02T01:10:43;94809.31;;;5.24;54.92
8543;BME280;4309;42.658;23.380;2023-02-02T01:11:15;94806.72;;;5.24;55.48
8543;BME280;4309;42.658;23.380;2023-02-02T01:11:46;94802.53;;;5.23;55.81
8543;BME280;4309;42.658;23.380;2023-02-02T01:12:17;94799.94;;;5.23;56.01
8543;BME280;4309;42.658;23.380;2023-02-02T01:12:49;94808.16;;;5.26;55.82
8543;BME280;4309;42.658;23.380;2023-02-02T01:13:19;94809.50;;;5.22;56.48
8543;BME280;4309;42.658;23.380;2023-02-02T01:13:50;94801.91;;;5.21;56.06
8543;BME280;4309;42.658;23.380;2023-02-02T01:14:22;94809.31;;;5.24;56.53
8543;BME280;4309;42.658;23.380;2023-02-02T01:14:53;94810.31;;;5.23;56.62
8543;BME280;4309;42.658;23.380;2023-02-02T01:15:24;94804.50;;;5.21;56.65
8543;BME280;4309;42.658;23.380;2023-02-02T01:15:56;94798.31;;;5.22;56.77
8543;BME280;4309;42.658;23.380;2023-02-02T01:16:35;94802.53;;;5.23;56.10
8543;BME280;4309;42.658;23.380;2023-02-02T01:17:06;94811.28;;;5.22;56.30
8543;BME280;4309;42.658;23.380;2023-02-02T01:17:38;94801.53;;;5.24;56.73
8543;BME280;4309;42.658;23.380;2023-02-02T01:18:09;94811.16;;;5.30;57.01
8543;BME280;4309;42.658;23.380;2023-02-02T01:18:40;94804.38;;;5.29;56.90
8543;BME280;4309;42.658;23.380;2023-02-02T01:19:12;94803.19;;;5.31;56.22
8543;BME280;4309;42.658;23.380;2023-02-02T01:19:43;94805.97;;;5.30;56.48
8543;BME280;4309;42.658;23.380;2023-02-02T01:20:17;94804.00;;;5.32;57.34
8543;BME280;4309;42.658;23.380;2023-02-02T01:20:55;94800.72;;;5.23;57.13
8543;BME280;4309;42.658;23.380;2023-02-02T01:21:27;94799.81;;;5.31;56.41
8543;BME280;4309;42.658;23.380;2023-02-02T01:21:57;94791.97;;;5.24;56.65
8543;BME280;4309;42.658;23.380;2023-02-02T01:22:29;94799.31;;;5.21;56.64
8543;BME280;4309;42.658;23.380;2023-02-02T01:23:00;94790.84;;;5.12;57.19
8543;BME280;4309;42.658;23.380;2023-02-02T01:23:33;94793.28;;;5.14;57.53
8543;BME280;4309;42.658;23.380;2023-02-02T01:24:06;94796.91;;;5.19;57.14
8543;BME280;4309;42.658;23.380;2023-02-02T01:24:37;94798.88;;;5.17;57.42
8543;BME280;4309;42.658;23.380;2023-02-02T01:25:08;94793.44;;;5.12;57.26
8543;BME280;4309;42.658;23.380;2023-02-02T01:25:38;94800.69;;;5.17;57.22
8543;BME280;4309;42.658;23.380;2023-02-02T01:26:11;94792.47;;;5.13;57.55
8543;BME280;4309;42.658;23.380;2023-02-02T01:26:42;94808.66;;;5.15;57.44
8543;BME280;4309;42.658;23.380;2023-02-02T01:27:13;94794.25;;;5.13;57.43
8543;BME280;4309;42.658;23.380;2023-02-02T01:27:44;94803.09;;;5.18;58.11
8543;BME280;4309;42.658;23.380;2023-02-02T01:28:15;94797.84;;;5.12;58.07
8543;BME280;4309;42.658;23.380;2023-02-02T01:28:46;94801.06;;;5.14;57.67
8543;BME280;4309;42.658;23.380;2023-02-02T01:29:18;94790.84;;;5.12;58.51
8543;BME280;4309;42.658;23.380;2023-02-02T01:29:48;94791.84;;;5.11;58.77
8543;BME280;4309;42.658;23.380;2023-02-02T01:30:19;94797.38;;;5.08;58.11
8543;BME280;4309;42.658;23.380;2023-02-02T01:30:50;94797.09;;;5.18;58.66
8543;BME280;4309;42.658;23.380;2023-02-02T01:31:22;94791.47;;;5.14;58.92
8543;BME280;4309;42.658;23.380;2023-02-02T01:31:53;94783.06;;;5.12;57.89
8543;BME280;4309;42.658;23.380;2023-02-02T01:32:24;94789.06;;;5.13;58.40
8543;BME280;4309;42.658;23.380;2023-02-02T01:32:58;94789.06;;;5.13;58.82
8543;BME280;4309;42.658;23.380;2023-02-02T01:33:29;94782.28;;;5.12;59.14
8543;BME280;4309;42.658;23.380;2023-02-02T01:33:59;94778.88;;;5.11;58.86
8543;BME280;4309;42.658;23.380;2023-02-02T01:34:31;94783.88;;;5.13;59.00
8543;BME280;4309;42.658;23.380;2023-02-02T01:35:02;94783.63;;;5.08;58.86
8543;BME280;4309;42.658;23.380;2023-02-02T01:35:33;94781.22;;;5.06;58.69
8543;BME280;4309;42.658;23.380;2023-02-02T01:36:06;94779.63;;;5.05;58.34
8543;BME280;4309;42.658;23.380;2023-02-02T01:36:38;94784.00;;;5.05;58.75
8543;BME280;4309;42.658;23.380;2023-02-02T01:37:12;94785.00;;;5.04;59.01
8543;BME280;4309;42.658;23.380;2023-02-02T01:37:43;94779.28;;;4.94;58.62
8543;BME280;4309;42.658;23.380;2023-02-02T01:38:15;94780.47;;;4.91;59.27
8543;BME280;4309;42.658;23.380;2023-02-02T01:38:48;94784.22;;;4.89;59.21
8543;BME280;4309;42.658;23.380;2023-02-02T01:39:19;94785.13;;;4.81;58.81
8543;BME280;4309;42.658;23.380;2023-02-02T01:39:50;94784.94;;;4.82;59.47
8543;BME280;4309;42.658;23.380;2023-02-02T01:40:21;94781.19;;;4.85;59.13
8543;BME280;4309;42.658;23.380;2023-02-02T01:40:54;94777.44;;;4.88;59.01
8543;BME280;4309;42.658;23.380;2023-02-02T01:41:26;94784.22;;;4.89;59.25
8543;BME280;4309;42.658;23.380;2023-02-02T01:41:58;94779.66;;;4.91;58.74
8543;BME280;4309;42.658;23.380;2023-02-02T01:42:29;94773.69;;;4.90;58.68
8543;BME280;4309;42.658;23.380;2023-02-02T01:43:00;94780.84;;;4.88;58.72
8543;BME280;4309;42.658;23.380;2023-02-02T01:43:50;94784.06;;;4.90;58.48
8543;BME280;4309;42.658;23.380;2023-02-02T01:45:27;94780.66;;;4.90;59.01
8543;BME280;4309;42.658;23.380;2023-02-02T01:45:58;94773.06;;;4.88;58.59
8543;BME280;4309;42.658;23.380;2023-02-02T01:46:31;94781.81;;;4.87;58.60
8543;BME280;4309;42.658;23.380;2023-02-02T01:47:03;94784.22;;;4.89;59.25
8543;BME280;4309;42.658;23.380;2023-02-02T01:47:36;94775.66;;;4.88;58.84
8543;BME280;4309;42.658;23.380;2023-02-02T01:48:08;94780.41;;;4.85;59.23
8543;BME280;4309;42.658;23.380;2023-02-02T01:48:41;94778.34;;;4.80;59.49
8543;BME280;4309;42.658;23.380;2023-02-02T01:49:16;94781.31;;;4.77;59.61
8543;BME280;4309;42.658;23.380;2023-02-02T01:49:49;94777.28;;;4.74;59.22
8543;BME280;4309;42.658;23.380;2023-02-02T01:50:25;94778.53;;;4.78;59.56
8543;BME280;4309;42.658;23.380;2023-02-02T01:50:59;94766.69;;;4.69;58.99
8543;BME280;4309;42.658;23.380;2023-02-02T01:51:40;94771.31;;;4.74;59.76
8543;BME280;4309;42.658;23.380;2023-02-02T01:52:14;94778.34;;;4.80;59.75
8543;BME280;4309;42.658;23.380;2023-02-02T01:52:48;94772.91;;;4.75;59.74
8543;BME280;4309;42.658;23.380;2023-02-02T01:53:21;94768.28;;;4.70;59.59
8543;BME280;4309;42.658;23.380;2023-02-02T01:53:56;94779.28;;;4.72;59.89
8543;BME280;4309;42.658;23.380;2023-02-02T01:54:30;94761.59;;;4.61;59.90
8543;BME280;4309;42.658;23.380;2023-02-02T01:55:05;94771.59;;;4.64;59.94
8543;BME280;4309;42.658;23.380;2023-02-02T01:55:39;94764.47;;;4.66;60.21
8543;BME280;4309;42.658;23.380;2023-02-02T01:56:14;94771.22;;;4.67;60.35
8543;BME280;4309;42.658;23.380;2023-02-02T01:56:50;94768.81;;;4.66;60.05
8543;BME280;4309;42.658;23.380;2023-02-02T01:57:27;94762.56;;;4.60;60.64
8543;BME280;4309;42.658;23.380;2023-02-02T01:58:02;94766.41;;;4.64;60.31
8543;BME280;4309;42.658;23.380;2023-02-02T01:58:36;94759.81;;;4.62;60.74
8543;BME280;4309;42.658;23.380;2023-02-02T01:59:08;94764.13;;;4.55;60.96
8543;BME280;4309;42.658;23.380;2023-02-02T01:59:40;94763.03;;;4.49;60.56
8543;BME280;4309;42.658;23.380;2023-02-02T02:00:15;94763.75;;;4.43;61.27
8543;BME280;4309;42.658;23.380;2023-02-02T02:00:47;94765.13;;;4.39;60.91
8543;BME280;4309;42.658;23.380;2023-02-02T02:01:18;94767.06;;;4.37;61.00
8543;BME280;4309;42.658;23.380;2023-02-02T02:01:50;94773.75;;;4.46;60.99
8543;BME280;4309;42.658;23.380;2023-02-02T02:03:05;94768.31;;;4.41;61.42
8543;BME280;4309;42.658;23.380;2023-02-02T02:03:38;94774.13;;;4.43;61.14
8543;BME280;4309;42.658;23.380;2023-02-02T02:04:09;94766.09;;;4.38;61.09
8543;BME280;4309;42.658;23.380;2023-02-02T02:04:41;94764.22;;;4.32;61.75
8543;BME280;4309;42.658;23.380;2023-02-02T02:05:15;94755.41;;;4.27;61.63
8543;BME280;4309;42.658;23.380;2023-02-02T02:05:51;94758.63;;;4.14;62.15
8543;BME280;4309;42.658;23.380;2023-02-02T02:06:25;94766.81;;;4.18;62.24
8543;BME280;4309;42.658;23.380;2023-02-02T02:06:58;94757.81;;;4.14;62.38
8543;BME280;4309;42.658;23.380;2023-02-02T02:07:30;94757.63;;;4.15;62.57
8543;BME280;4309;42.658;23.380;2023-02-02T02:08:06;94760.38;;;4.14;62.14
8543;BME280;4309;42.658;23.380;2023-02-02T02:08:42;94760.84;;;4.17;62.25
8543;BME280;4309;42.658;23.380;2023-02-02T02:09:16;94760.22;;;4.15;62.75
8543;BME280;4309;42.658;23.380;2023-02-02T02:09:47;94755.75;;;4.09;62.54
8543;BME280;4309;42.658;23.380;2023-02-02T02:10:19;94763.16;;;4.12;62.47
8543;BME280;4309;42.658;23.380;2023-02-02T02:10:50;94759.34;;;4.08;62.41
8543;BME280;4309;42.658;23.380;2023-02-02T02:11:21;94758.69;;;4.06;62.41
8543;BME280;4309;42.658;23.380;2023-02-02T02:11:53;94758.88;;;4.05;62.77
8543;BME280;4309;42.658;23.380;2023-02-02T02:12:24;94763.06;;;4.06;62.58
8543;BME280;4309;42.658;23.380;2023-02-02T02:12:55;94761.81;;;4.02;62.85
8543;BME280;4309;42.658;23.380;2023-02-02T02:13:28;94766.09;;;4.09;62.79
8543;BME280;4309;42.658;23.380;2023-02-02T02:14:15;94772.50;;;4.13;62.38
8543;BME280;4309;42.658;23.380;2023-02-02T02:15:06;94761.47;;;4.05;62.27
8543;BME280;4309;42.658;23.380;2023-02-02T02:16:03;94766.50;;;3.55;63.54
8543;BME280;4309;42.658;23.380;2023-02-02T02:17:09;94766.41;;;3.63;63.95
8543;BME280;4309;42.658;23.380;2023-02-02T02:18:02;94765.53;;;3.70;64.34
8543;BME280;4309;42.658;23.380;2023-02-02T02:18:43;94771.66;;;3.69;63.79
8543;BME280;4309;42.658;23.380;2023-02-02T02:19:40;94776.69;;;3.71;63.85
8543;BME280;4309;42.658;23.380;2023-02-02T02:22:02;94773.13;;;3.72;63.38
8543;BME280;4309;42.658;23.380;2023-02-02T02:24:52;94773.28;;;3.70;63.63
8543;BME280;4309;42.658;23.380;2023-02-02T02:25:55;94772.84;;;3.67;63.47
8543;BME280;4309;42.658;23.380;2023-02-02T02:27:17;94777.81;;;3.68;63.98
8543;BME280;4309;42.658;23.380;2023-02-02T02:29:03;94777.75;;;3.76;63.30
8543;BME280;4309;42.658;23.380;2023-02-02T02:30:05;94778.56;;;3.77;63.56
8543;BME280;4309;42.658;23.380;2023-02-02T02:30:56;94772.94;;;3.73;63.65
8543;BME280;4309;42.658;23.380;2023-02-02T02:32:00;94781.75;;;3.64;63.38
8543;BME280;4309;42.658;23.380;2023-02-02T02:32:40;94774.25;;;3.69;63.54
8543;BME280;4309;42.658;23.380;2023-02-02T02:33:20;94775.88;;;3.70;63.27
8543;BME280;4309;42.658;23.380;2023-02-02T02:33:57;94773.94;;;3.72;63.86
8543;BME280;4309;42.658;23.380;2023-02-02T02:34:38;94767.84;;;3.65;63.39
8543;BME280;4309;42.658;23.380;2023-02-02T02:35:19;94766.34;;;3.71;63.55
8543;BME280;4309;42.658;23.380;2023-02-02T02:35:56;94767.78;;;3.73;63.33
8543;BME280;4309;42.658;23.380;2023-02-02T02:36:40;94769.00;;;3.77;63.66
8543;BME280;4309;42.658;23.380;2023-02-02T02:37:18;94771.78;;;3.76;63.51
8543;BME280;4309;42.658;23.380;2023-02-02T02:37:57;94768.00;;;3.64;63.31
8543;BME280;4309;42.658;23.380;2023-02-02T02:38:39;94766.00;;;3.74;63.50
8543;BME280;4309;42.658;23.380;2023-02-02T02:39:15;94766.41;;;3.77;63.46
8543;BME280;4309;42.658;23.380;2023-02-02T02:39:51;94774.00;;;3.79;63.33
8543;BME280;4309;42.658;23.380;2023-02-02T02:40:29;94770.09;;;3.83;63.04
8543;BME280;4309;42.658;23.380;2023-02-02T02:41:08;94768.34;;;3.83;62.92
8543;BME280;4309;42.658;23.380;2023-02-02T02:41:45;94764.13;;;3.82;63.44
8543;BME280;4309;42.658;23.380;2023-02-02T02:42:21;94776.22;;;3.82;63.10
8543;BME280;4309;42.658;23.380;2023-02-02T02:42:55;94770.09;;;3.83;62.85
8543;BME280;4309;42.658;23.380;2023-02-02T02:43:30;94766.53;;;3.84;63.03
8543;BME280;4309;42.658;23.380;2023-02-02T02:44:07;94767.50;;;3.83;63.08
8543;BME280;4309;42.658;23.380;2023-02-02T02:44:39;94765.75;;;3.83;63.07
8543;BME280;4309;42.658;23.380;2023-02-02T02:45:12;94766.53;;;3.84;63.08
8543;BME280;4309;42.658;23.380;2023-02-02T02:45:44;94768.34;;;3.83;63.11
8543;BME280;4309;42.658;23.380;2023-02-02T02:46:15;94769.56;;;3.87;63.18
8543;BME280;4309;42.658;23.380;2023-02-02T02:46:47;94759.13;;;3.81;63.03
8543;BME280;4309;42.658;23.380;2023-02-02T02:47:21;94773.31;;;3.85;63.27
8543;BME280;4309;42.658;23.380;2023-02-02T02:47:52;94770.91;;;3.83;63.09
8543;BME280;4309;42.658;23.380;2023-02-02T02:48:24;94768.94;;;3.85;62.82
8543;BME280;4309;42.658;23.380;2023-02-02T02:48:56;94768.94;;;3.85;63.05
8543;BME280;4309;42.658;23.380;2023-02-02T02:49:28;94774.47;;;3.82;63.27
8543;BME280;4309;42.658;23.380;2023-02-02T02:49:59;94768.59;;;3.74;63.08
8543;BME280;4309;42.658;23.380;2023-02-02T02:50:30;94769.66;;;3.79;63.17
8543;BME280;4309;42.658;23.380;2023-02-02T02:51:06;94768.94;;;3.85;63.10
8543;BME280;4309;42.658;23.380;2023-02-02T02:51:43;94768.34;;;3.83;63.15
8543;BME280;4309;42.658;23.380;2023-02-02T02:52:14;94766.97;;;3.87;63.34
8543;BME280;4309;42.658;23.380;2023-02-02T02:52:48;94768.84;;;3.79;63.06
8543;BME280;4309;42.658;23.380;2023-02-02T02:53:22;94770.00;;;3.76;63.58
8543;BME280;4309;42.658;23.380;2023-02-02T02:53:54;94771.78;;;3.76;63.62
8543;BME280;4309;42.658;23.380;2023-02-02T02:54:30;94767.78;;;3.73;63.62
8543;BME280;4309;42.658;23.380;2023-02-02T02:55:03;94763.75;;;3.71;63.51
8543;BME280;4309;42.658;23.380;2023-02-02T02:55:43;94766.97;;;3.73;63.63
8543;BME280;4309;42.658;23.380;2023-02-02T02:56:21;94764.38;;;3.73;63.60
8543;BME280;4309;42.658;23.380;2023-02-02T02:57:05;94761.84;;;3.65;63.02
8543;BME280;4309;42.658;23.380;2023-02-02T02:57:50;94761.44;;;3.76;63.34
8543;BME280;4309;42.658;23.380;2023-02-02T02:58:32;94767.66;;;3.67;63.66
8543;BME280;4309;42.658;23.380;2023-02-02T02:59:09;94767.50;;;3.68;64.12
8543;BME280;4309;42.658;23.380;2023-02-02T02:59:50;94768.75;;;3.72;63.65
8543;BME280;4309;42.658;23.380;2023-02-02T03:00:47;94764.72;;;3.70;63.67
8543;BME280;4309;42.658;23.380;2023-02-02T03:01:27;94772.47;;;3.70;63.74
8543;BME280;4309;42.658;23.380;2023-02-02T03:02:23;94768.31;;;3.69;64.20
8543;BME280;4309;42.658;23.380;2023-02-02T03:03:06;94764.25;;;3.66;63.98
8543;BME280;4309;42.658;23.380;2023-02-02T03:04:02;94779.59;;;3.68;63.92
8543;BME280;4309;42.658;23.380;2023-02-02T03:04:42;94774.25;;;3.69;63.73
8543;BME280;4309;42.658;23.380;2023-02-02T03:05:29;94759.81;;;3.60;64.03
8543;BME280;4309;42.658;23.380;2023-02-02T03:06:07;94761.25;;;3.63;64.01
8543;BME280;4309;42.658;23.380;2023-02-02T03:06:47;94764.63;;;3.63;64.34
8543;BME280;4309;42.658;23.380;2023-02-02T03:07:24;94768.47;;;3.67;64.08
8543;BME280;4309;42.658;23.380;2023-02-02T03:08:04;94767.38;;;3.62;64.28
8543;BME280;4309;42.658;23.380;2023-02-02T03:08:38;94761.16;;;3.56;64.20
8543;BME280;4309;42.658;23.380;2023-02-02T03:09:12;94763.03;;;3.62;64.23
8543;BME280;4309;42.658;23.380;2023-02-02T03:09:47;94774.69;;;3.58;63.96
8543;BME280;4309;42.658;23.380;2023-02-02T03:10:21;94767.28;;;3.55;64.07
8543;BME280;4309;42.658;23.380;2023-02-02T03:10:55;94761.16;;;3.56;64.53
8543;BME280;4309;42.658;23.380;2023-02-02T03:11:28;94763.72;;;3.56;64.21
8543;BME280;4309;42.658;23.380;2023-02-02T03:11:59;94755.34;;;3.54;64.30
8543;BME280;4309;42.658;23.380;2023-02-02T03:12:30;94768.09;;;3.56;64.34
8543;BME280;4309;42.658;23.380;2023-02-02T03:13:06;94759.81;;;3.60;63.79
8543;BME280;4309;42.658;23.380;2023-02-02T03:13:39;94759.03;;;3.60;64.02
8543;BME280;4309;42.658;23.380;2023-02-02T03:14:10;94764.19;;;3.60;63.73
8543;BME280;4309;42.658;23.380;2023-02-02T03:14:41;94775.66;;;3.57;64.41